Time;durP1;ratioP1;P1;durP2;ratioP2;P2;SDS_P1;SDS_P2;PMS_P1;PMS_P2;Temp;Humidity;BMP_temperature;BMP_pressure;BME280_temperature;BME280_humidity;BME280_pressure;Samples;Min_cycle;Max_cycle;Signal;HPM_P1;HPM_P2
2023/09/25 00:01:24;;;;;;;4.70;2.40;;;13.50;58.90;;;15.02;46.31;98325.06;5021674;28;20050;-65
2023/09/25 00:03:52;;;;;;;5.38;2.10;;;13.50;58.80;;;15.02;46.16;98327.75;5020286;28;20421;-65
2023/09/25 00:06:20;;;;;;;3.75;2.45;;;13.50;58.80;;;15.02;46.28;98322.41;5020981;28;20428;-66
2023/09/25 00:08:47;;;;;;;3.78;3.00;;;13.50;58.90;;;14.99;46.25;98320.06;5023467;28;20417;-65
2023/09/25 00:11:15;;;;;;;4.45;2.47;;;13.50;58.70;;;14.96;46.20;98315.88;5022823;28;20103;-66
2023/09/25 00:13:43;;;;;;;3.90;2.22;;;13.60;58.40;;;14.96;46.47;98321.25;5003067;28;20050;-65
2023/09/25 00:16:16;;;;;;;3.05;2.05;;;13.60;58.40;;;14.94;46.27;98313.34;5002297;28;20041;-66
2023/09/25 00:18:44;;;;;;;5.18;3.20;;;13.50;58.60;;;14.95;46.33;98319.59;4996042;28;20390;-66
2023/09/25 00:21:12;;;;;;;4.13;2.53;;;13.50;58.70;;;14.95;46.43;98322.25;5020038;28;20046;-65
2023/09/25 00:23:40;;;;;;;3.80;2.10;;;13.50;58.40;;;14.95;46.30;98328.44;5023220;28;20033;-65
2023/09/25 00:26:08;;;;;;;4.10;2.38;;;13.50;58.40;;;14.97;46.25;98320.25;5005321;28;20072;-66
2023/09/25 00:28:43;;;;;;;3.70;2.30;;;13.50;58.30;;;14.96;46.07;98314.03;5009731;28;20417;-65
2023/09/25 00:31:11;;;;;;;4.18;2.25;;;13.60;58.10;;;14.94;46.14;98321.41;5018579;28;20137;-65
2023/09/25 00:33:38;;;;;;;4.20;2.50;;;13.60;57.70;;;14.94;46.18;98313.34;5019585;28;20041;-65
2023/09/25 00:36:06;;;;;;;3.28;2.17;;;13.60;57.70;;;14.91;45.84;98312.91;5009009;28;20060;-65
2023/09/25 00:38:34;;;;;;;5.95;2.35;;;13.60;57.60;;;14.90;46.28;98311.22;5010001;28;20050;-66
2023/09/25 00:41:01;;;;;;;3.60;2.15;;;13.60;57.80;;;14.93;46.21;98310.88;5019737;28;20428;-65
2023/09/25 00:43:29;;;;;;;3.42;2.33;;;13.60;57.90;;;14.95;46.19;98309.69;4986380;28;20058;-65
2023/09/25 00:45:57;;;;;;;7.90;2.70;;;13.50;58.40;;;14.97;46.19;98306.84;5012659;28;20053;-65
2023/09/25 00:48:28;;;;;;;6.65;2.53;;;13.50;58.20;;;14.97;46.14;98306.84;5021671;28;20060;-65
2023/09/25 00:50:59;;;;;;;3.72;2.22;;;13.50;58.20;;;14.99;46.18;98309.34;4988318;28;20056;-66
2023/09/25 00:53:28;;;;;;;4.60;2.22;;;13.50;58.20;;;14.99;46.22;98304.81;5010508;28;20116;-65
2023/09/25 00:55:56;;;;;;;4.50;2.60;;;13.50;58.30;;;14.96;45.99;98307.84;5019143;28;20049;-65
2023/09/25 00:58:25;;;;;;;3.83;2.20;;;13.50;58.30;;;14.94;46.18;98304.50;4984647;28;20422;-65
2023/09/25 01:00:55;;;;;;;3.72;2.20;;;13.50;58.20;;;14.93;46.13;98311.72;5004507;28;20049;-66
2023/09/25 01:03:23;;;;;;;2.97;2.03;;;13.40;58.50;;;14.92;46.24;98307.34;5003306;28;20068;-66
2023/09/25 01:05:51;;;;;;;3.65;2.20;;;13.40;58.90;;;14.91;46.12;98308.38;5018878;28;20048;-66
2023/09/25 01:08:18;;;;;;;3.38;2.25;;;13.30;58.90;;;14.87;46.28;98311.53;5002263;28;20049;-65
2023/09/25 01:10:46;;;;;;;3.90;2.15;;;13.30;59.00;;;14.84;46.25;98307.38;4988581;28;20049;-65
2023/09/25 01:13:15;;;;;;;4.57;2.20;;;13.30;59.10;;;14.83;46.21;98300.34;5012612;28;20049;-66
2023/09/25 01:15:42;;;;;;;4.05;2.80;;;13.30;58.80;;;14.84;46.34;98303.88;5004337;28;20389;-66
2023/09/25 01:18:10;;;;;;;6.43;2.63;;;13.30;59.10;;;14.81;46.45;98302.38;5022584;28;20056;-66
2023/09/25 01:20:38;;;;;;;5.68;2.65;;;13.30;59.40;;;14.80;46.48;98306.03;5002039;28;20532;-66
2023/09/25 01:23:06;;;;;;;4.43;2.60;;;13.20;59.90;;;14.75;46.31;98298.53;5004582;28;20053;-65
2023/09/25 01:25:33;;;;;;;3.47;2.50;;;13.00;60.10;;;14.70;46.42;98300.88;4994849;28;20421;-66
2023/09/25 01:28:03;;;;;;;4.65;2.50;;;13.00;60.10;;;14.70;46.49;98295.53;5012638;28;20054;-66
2023/09/25 01:30:31;;;;;;;3.67;2.42;;;13.00;60.10;;;14.64;46.41;98292.72;5010714;28;20057;-65
2023/09/25 01:32:59;;;;;;;4.32;2.50;;;12.90;60.50;;;14.59;46.68;98295.03;5000239;28;20546;-66
2023/09/25 01:35:27;;;;;;;4.20;2.50;;;12.90;60.60;;;14.54;46.76;98299.03;5019847;28;20050;-66
2023/09/25 01:38:00;;;;;;;3.58;2.60;;;12.80;61.10;;;14.50;46.80;98295.03;5004386;28;20068;-66
2023/09/25 01:40:28;;;;;;;3.20;2.30;;;12.70;61.70;;;14.45;46.91;98292.03;5021116;28;20045;-66
2023/09/25 01:42:55;;;;;;;5.03;2.78;;;12.60;62.10;;;14.39;47.00;98284.69;5005120;28;20053;-65
2023/09/25 01:45:23;;;;;;;4.30;2.83;;;12.50;62.50;;;14.32;47.04;98291.72;4991384;28;20053;-66
2023/09/25 01:47:53;;;;;;;4.03;2.90;;;12.40;62.50;;;14.28;47.12;98291.19;5009002;28;20500;-66
2023/09/25 01:50:24;;;;;;;3.90;2.40;;;12.40;62.90;;;14.22;47.27;98291.88;5007813;28;20436;-66
2023/09/25 01:52:56;;;;;;;4.70;2.72;;;12.30;64.00;;;14.12;47.79;98292.06;4990208;28;20429;-66
2023/09/25 01:55:27;;;;;;;4.07;2.60;;;12.10;65.00;;;14.04;47.86;98294.75;5004460;28;20057;-66
2023/09/25 01:57:54;;;;;;;6.32;3.75;;;12.00;65.80;;;13.99;48.01;98297.91;5024754;28;20064;-66
2023/09/25 02:00:22;;;;;;;4.75;2.38;;;11.90;66.20;;;13.94;48.09;98294.91;5008315;28;20050;-65
2023/09/25 02:02:50;;;;;;;4.07;2.70;;;11.90;65.70;;;13.89;47.94;98291.88;5022590;28;20045;-66
2023/09/25 02:05:18;;;;;;;6.95;3.13;;;11.90;65.60;;;13.85;48.10;98301.25;5020770;28;20061;-65
2023/09/25 02:07:46;;;;;;;5.07;3.00;;;11.90;65.80;;;13.79;48.34;98297.41;5004097;28;20038;-65
2023/09/25 02:10:14;;;;;;;3.28;2.50;;;11.80;66.40;;;13.75;48.48;98300.59;5022476;28;20045;-64
2023/09/25 02:12:43;;;;;;;4.67;2.93;;;11.70;66.80;;;13.70;48.56;98290.34;5007806;28;20029;-65
2023/09/25 02:15:12;;;;;;;6.47;2.60;;;11.70;67.40;;;13.66;48.65;98293.53;4991252;28;20049;-65
2023/09/25 02:17:40;;;;;;;5.38;3.05;;;11.60;68.00;;;13.61;48.82;98287.84;5022849;28;20058;-65
2023/09/25 02:20:19;;;;;;;4.17;2.77;;;11.50;67.60;;;13.57;48.70;98288.19;5010431;28;20049;-66
2023/09/25 02:22:48;;;;;;;4.90;2.42;;;11.50;67.60;;;13.51;48.77;98278.16;5004327;28;20050;-65
2023/09/25 02:25:16;;;;;;;4.78;2.53;;;11.50;68.00;;;13.46;49.06;98274.28;5011569;28;20050;-64
2023/09/25 02:27:46;;;;;;;3.75;2.58;;;11.40;68.20;;;13.42;48.83;98275.63;4991112;28;20423;-65
2023/09/25 02:30:14;;;;;;;5.63;2.50;;;11.40;68.40;;;13.37;48.92;98274.25;4991823;28;20049;-65
2023/09/25 02:32:43;;;;;;;4.30;2.60;;;11.40;68.40;;;13.35;49.09;98276.25;5011661;28;20045;-64
2023/09/25 02:35:12;;;;;;;5.27;3.17;;;11.40;68.20;;;13.30;48.95;98265.22;5021633;28;20049;-65
2023/09/25 02:37:41;;;;;;;4.13;2.80;;;11.30;68.70;;;13.26;49.18;98271.88;5024463;28;20056;-64
2023/09/25 02:40:14;;;;;;;4.17;2.73;;;11.20;68.70;;;13.23;49.35;98274.03;5007981;28;20051;-65
2023/09/25 02:42:46;;;;;;;4.60;2.90;;;11.20;68.80;;;13.16;49.62;98276.50;5022209;28;20046;-65
2023/09/25 02:45:15;;;;;;;5.10;2.90;;;11.10;70.00;;;13.10;49.93;98277.97;5010302;28;20060;-65
2023/09/25 02:47:44;;;;;;;6.60;2.60;;;11.00;70.10;;;13.03;49.82;98273.44;4988909;28;20056;-64
2023/09/25 02:50:13;;;;;;;3.65;2.50;;;10.90;70.60;;;12.98;49.92;98272.09;4991054;28;20076;-64
2023/09/25 02:52:43;;;;;;;6.30;2.67;;;10.90;71.70;;;12.94;50.00;98277.94;4988746;28;20056;-65
2023/09/25 02:55:12;;;;;;;4.00;2.60;;;10.80;71.50;;;12.88;50.15;98271.38;5024645;28;20045;-65
2023/09/25 02:57:40;;;;;;;8.03;2.93;;;10.80;71.40;;;12.85;50.25;98274.38;5005393;28;20523;-64
2023/09/25 03:00:10;;;;;;;3.63;2.28;;;10.70;71.70;;;12.80;50.61;98274.03;5020336;28;20057;-65
2023/09/25 03:02:38;;;;;;;4.80;2.70;;;10.70;72.80;;;12.76;50.60;98270.84;5011451;28;20049;-64
2023/09/25 03:05:07;;;;;;;4.00;2.33;;;10.70;72.30;;;12.75;50.63;98277.16;5022449;28;20052;-64
2023/09/25 03:07:34;;;;;;;6.00;2.73;;;10.70;72.30;;;12.71;50.55;98270.47;5013825;28;20531;-64
2023/09/25 03:10:03;;;;;;;3.83;2.00;;;10.70;71.80;;;12.69;50.83;98279.66;5003569;28;20046;-64
2023/09/25 03:12:31;;;;;;;4.40;2.70;;;10.60;71.70;;;12.68;50.73;98267.28;5012099;28;20044;-64
2023/09/25 03:14:59;;;;;;;4.43;2.10;;;10.70;71.60;;;12.64;50.64;98273.94;5009667;28;20061;-65
2023/09/25 03:17:26;;;;;;;7.00;2.63;;;10.60;71.40;;;12.60;50.71;98271.59;4994639;28;20497;-64
2023/09/25 03:19:54;;;;;;;6.20;2.83;;;10.60;71.70;;;12.58;50.44;98272.72;5011510;28;20061;-64
2023/09/25 03:22:21;;;;;;;5.83;2.83;;;10.50;71.50;;;12.56;50.50;98266.72;5006882;28;20105;-64
2023/09/25 03:24:49;;;;;;;4.50;2.40;;;10.50;71.50;;;12.54;50.56;98269.56;5013905;28;20041;-65
2023/09/25 03:27:17;;;;;;;3.60;3.10;;;10.50;71.70;;;12.50;50.61;98267.34;5024234;28;20045;-65
2023/09/25 03:29:45;;;;;;;4.57;2.33;;;10.50;71.60;;;12.48;50.99;98267.50;5009095;28;20052;-64
2023/09/25 03:32:13;;;;;;;5.83;3.20;;;10.50;71.70;;;12.46;50.66;98277.50;5005125;28;20072;-65
2023/09/25 03:34:41;;;;;;;5.23;2.40;;;10.50;71.40;;;12.46;50.92;98274.84;5004482;28;20421;-64
2023/09/25 03:37:09;;;;;;;4.90;2.80;;;10.50;71.60;;;12.44;50.99;98268.81;5024212;28;20558;-65
2023/09/25 03:39:38;;;;;;;4.97;2.77;;;10.50;71.70;;;12.43;51.37;98268.97;5012935;28;20429;-64
2023/09/25 03:42:06;;;;;;;3.33;2.60;;;10.50;72.40;;;12.41;51.34;98266.47;5020652;28;20516;-64
2023/09/25 03:44:33;;;;;;;4.93;3.07;;;10.40;72.90;;;12.40;51.26;98267.47;5021094;28;20041;-64
2023/09/25 03:47:01;;;;;;;5.23;3.70;;;10.40;73.00;;;12.34;51.39;98268.09;5022117;28;20402;-64
2023/09/25 03:49:29;;;;;;;3.20;2.40;;;10.30;73.40;;;12.32;51.13;98262.91;5005866;28;20432;-64
2023/09/25 03:51:56;;;;;;;5.00;3.23;;;10.30;72.80;;;12.30;51.22;98261.41;5011088;28;20049;-64
2023/09/25 03:54:24;;;;;;;4.20;3.00;;;10.30;72.40;;;12.31;51.53;98263.91;5020450;28;20425;-64
2023/09/25 03:56:52;;;;;;;5.80;3.27;;;10.40;72.40;;;12.30;51.48;98259.56;5022879;28;20053;-64
2023/09/25 03:59:19;;;;;;;5.43;2.60;;;10.40;72.50;;;12.31;51.55;98268.41;5023373;28;20057;-64
2023/09/25 04:01:47;;;;;;;2.97;2.23;;;10.40;72.00;;;12.32;51.28;98267.41;5021648;28;20052;-64
2023/09/25 04:04:15;;;;;;;7.00;2.80;;;10.40;71.80;;;12.29;51.41;98268.59;5019474;28;20429;-64
2023/09/25 04:06:43;;;;;;;7.03;2.77;;;10.40;71.70;;;12.26;51.41;98270.72;5021355;28;20046;-65
2023/09/25 04:09:11;;;;;;;4.33;2.40;;;10.30;72.20;;;12.24;51.10;98270.03;5023667;28;20053;-64
2023/09/25 04:11:39;;;;;;;4.93;2.80;;;10.30;72.40;;;12.21;51.23;98276.50;5022344;28;20437;-64
2023/09/25 04:14:06;;;;;;;5.67;2.90;;;10.30;72.30;;;12.18;51.37;98279.50;5020107;28;20493;-65
2023/09/25 04:16:34;;;;;;;4.63;2.63;;;10.20;72.70;;;12.13;51.57;98279.13;5019803;28;20045;-64
2023/09/25 04:19:04;;;;;;;4.33;2.50;;;10.10;73.00;;;12.09;51.73;98278.59;5023233;28;20072;-64
2023/09/25 04:21:32;;;;;;;5.70;2.87;;;10.10;73.30;;;12.07;51.41;98274.41;5023114;28;20050;-65
2023/09/25 04:24:01;;;;;;;4.00;2.90;;;10.00;72.90;;;12.04;51.71;98272.03;5023054;28;20049;-64
2023/09/25 04:26:29;;;;;;;5.83;2.97;;;10.00;73.80;;;12.01;51.78;98270.53;5005559;28;20042;-65
2023/09/25 04:28:57;;;;;;;4.97;2.43;;;9.90;74.40;;;11.99;51.96;98278.69;5020053;28;20417;-65
2023/09/25 04:31:24;;;;;;;5.73;2.70;;;9.90;74.60;;;11.95;51.80;98281.84;5019739;28;20038;-64
2023/09/25 04:33:52;;;;;;;7.90;3.13;;;9.90;74.70;;;11.92;52.51;98274.13;5021441;28;20045;-65
2023/09/25 04:36:23;;;;;;;4.30;2.93;;;9.90;75.30;;;11.88;52.36;98286.06;5022884;28;20037;-65
2023/09/25 04:38:51;;;;;;;4.80;2.73;;;9.80;75.70;;;11.86;52.74;98280.03;5020731;28;20038;-65
2023/09/25 04:41:19;;;;;;;4.33;2.77;;;9.80;76.00;;;11.82;52.61;98284.84;5019230;28;20386;-65
2023/09/25 04:43:47;;;;;;;4.70;3.10;;;9.80;75.50;;;11.79;52.20;98282.50;5020731;28;20057;-64
2023/09/25 04:46:14;;;;;;;5.63;3.53;;;9.80;75.40;;;11.76;52.67;98285.47;5022555;28;20038;-64
2023/09/25 04:48:42;;;;;;;4.63;3.00;;;9.80;75.80;;;11.72;53.26;98281.44;5021934;28;20057;-64
2023/09/25 04:51:10;;;;;;;3.73;2.73;;;9.70;76.50;;;11.69;52.73;98279.06;5019294;28;20042;-64
2023/09/25 04:53:37;;;;;;;4.60;2.97;;;9.70;77.20;;;11.67;52.88;98283.72;5019299;28;20044;-64
2023/09/25 04:56:06;;;;;;;4.43;2.60;;;9.60;77.20;;;11.65;53.20;98283.03;5022576;28;20041;-64
2023/09/25 04:58:34;;;;;;;4.73;2.97;;;9.60;76.60;;;11.64;52.99;98284.84;5022839;28;20045;-64
2023/09/25 05:01:02;;;;;;;5.30;2.77;;;9.60;76.60;;;11.62;53.10;98284.19;5001825;28;20038;-64
2023/09/25 05:03:30;;;;;;;3.73;2.90;;;9.60;76.60;;;11.62;53.36;98284.19;5001779;28;20069;-64
2023/09/25 05:05:57;;;;;;;4.47;2.90;;;9.70;76.70;;;11.63;53.06;98292.03;5021544;28;20906;-64
2023/09/25 05:08:25;;;;;;;5.60;2.93;;;9.70;76.40;;;11.60;53.16;98286.16;5022695;28;20037;-64
2023/09/25 05:10:53;;;;;;;7.37;3.33;;;9.70;77.00;;;11.60;53.20;98291.50;5020637;28;20524;-64
2023/09/25 05:13:20;;;;;;;5.93;2.50;;;9.60;76.30;;;11.59;53.14;98293.34;5001335;28;20042;-64
2023/09/25 05:15:48;;;;;;;6.30;3.33;;;9.70;76.20;;;11.59;53.24;98285.31;5022233;28;20442;-64
2023/09/25 05:18:16;;;;;;;5.30;3.63;;;9.70;76.00;;;11.58;53.04;98293.47;5026688;28;20041;-66
2023/09/25 05:20:43;;;;;;;5.07;3.43;;;9.70;76.00;;;11.56;53.20;98290.13;5025939;28;20053;-66
2023/09/25 05:23:11;;;;;;;6.47;4.63;;;9.70;76.10;;;11.55;53.20;98297.25;5022937;28;20042;-66
2023/09/25 05:25:39;;;;;;;6.87;4.00;;;9.60;76.00;;;11.52;53.13;98292.25;5009588;28;20390;-66
2023/09/25 05:28:06;;;;;;;7.13;4.10;;;9.50;76.50;;;11.51;53.16;98287.88;5015374;28;20038;-65
2023/09/25 05:30:34;;;;;;;6.87;3.90;;;9.50;76.20;;;11.53;53.24;98290.41;5023229;28;20045;-64
2023/09/25 05:33:02;;;;;;;5.97;4.17;;;9.60;76.30;;;11.51;53.27;98279.91;5008004;28;20052;-64
2023/09/25 05:35:30;;;;;;;5.33;3.70;;;9.60;75.90;;;11.53;53.13;98285.91;5016542;28;20085;-65
2023/09/25 05:37:58;;;;;;;6.17;3.73;;;9.60;75.80;;;11.54;53.71;98286.78;5024212;28;20300;-66
2023/09/25 05:40:25;;;;;;;6.80;4.37;;;9.70;75.60;;;11.55;53.27;98286.59;5026575;28;20048;-68
2023/09/25 05:42:53;;;;;;;7.37;4.73;;;9.70;75.40;;;11.58;53.18;98278.31;5009317;28;20512;-65
2023/09/25 05:45:21;;;;;;;5.47;4.00;;;9.70;75.30;;;11.59;53.19;98284.47;5026109;28;20420;-67
2023/09/25 05:47:49;;;;;;;8.73;4.77;;;9.70;75.10;;;11.60;53.44;98286.16;5015484;28;20045;-68
2023/09/25 05:50:17;;;;;;;7.63;4.37;;;9.70;75.10;;;11.59;53.25;98279.13;5023193;28;20102;-69
2023/09/25 05:52:44;;;;;;;7.97;4.20;;;9.70;75.20;;;11.60;53.07;98284.31;5005508;28;20046;-69
2023/09/25 05:55:12;;;;;;;7.93;4.90;;;9.70;75.50;;;11.61;53.54;98280.69;5026074;28;20048;-69
2023/09/25 05:57:41;;;;;;;10.30;5.03;;;9.70;75.60;;;11.63;53.73;98284.03;5026444;28;20052;-70
2023/09/25 06:00:12;;;;;;;8.47;5.40;;;9.80;75.70;;;11.65;53.52;98285.69;5008476;28;20064;-70
2023/09/25 06:02:42;;;;;;;6.97;4.40;;;9.80;75.50;;;11.66;53.43;98285.53;5026187;28;20512;-69
2023/09/25 06:05:12;;;;;;;6.17;4.53;;;9.80;75.20;;;11.68;53.37;98282.72;5014424;28;20417;-70
2023/09/25 06:07:42;;;;;;;6.90;4.80;;;9.80;75.30;;;11.71;53.40;98277.06;5005320;28;20394;-69
2023/09/25 06:10:11;;;;;;;10.27;4.00;;;9.90;75.40;;;11.76;53.82;98277.47;4993452;28;20493;-69
2023/09/25 06:12:39;;;;;;;7.50;4.37;;;10.00;75.50;;;11.78;53.67;98286.16;5018429;28;20038;-71
2023/09/25 06:15:09;;;;;;;6.50;4.33;;;10.00;75.30;;;11.80;53.82;98279.66;5007413;28;20048;-70
2023/09/25 06:17:39;;;;;;;8.20;4.43;;;10.00;75.60;;;11.85;53.71;98281.88;5023762;28;20413;-71
2023/09/25 06:20:14;;;;;;;6.33;4.27;;;10.00;76.00;;;11.90;53.99;98281.44;5025129;28;20052;-70
2023/09/25 06:22:44;;;;;;;5.33;4.83;;;10.10;75.90;;;11.94;53.79;98283.66;5025593;28;20041;-70
2023/09/25 06:25:17;;;;;;;6.23;4.33;;;10.20;75.70;;;12.00;53.87;98283.03;4996931;28;20049;-71
2023/09/25 06:27:45;;;;;;;9.10;4.13;;;10.30;75.60;;;12.06;53.84;98286.06;5021330;28;20049;-70
2023/09/25 06:30:16;;;;;;;6.77;3.43;;;10.40;75.20;;;12.11;53.84;98281.94;4993994;28;20106;-70
2023/09/25 06:32:44;;;;;;;5.03;3.27;;;10.40;75.10;;;12.15;53.75;98290.47;5004505;28;20536;-71
2023/09/25 06:35:12;;;;;;;6.00;3.60;;;10.50;75.10;;;12.21;54.09;98284.53;4995964;28;20069;-71
2023/09/25 06:37:40;;;;;;;5.23;3.63;;;10.50;75.20;;;12.26;53.96;98284.06;5021990;28;20413;-68
2023/09/25 06:40:09;;;;;;;5.23;3.10;;;10.60;75.50;;;12.31;54.28;98287.09;5024729;28;20527;-68
2023/09/25 06:42:39;;;;;;;4.83;3.50;;;10.60;75.50;;;12.36;54.50;98282.13;5018334;28;20464;-68
2023/09/25 06:45:09;;;;;;;5.97;3.40;;;10.80;76.00;;;12.43;54.46;98287.66;5006679;28;20041;-68
2023/09/25 06:47:37;;;;;;;5.20;3.37;;;10.90;75.80;;;12.50;54.30;98288.72;5025156;28;20046;-68
2023/09/25 06:50:05;;;;;;;5.20;3.20;;;11.00;75.60;;;12.57;54.43;98293.28;5022720;28;20049;-68
2023/09/25 06:52:33;;;;;;;6.03;3.70;;;11.00;75.40;;;12.64;54.51;98295.31;5021577;28;20486;-68
2023/09/25 06:55:01;;;;;;;7.47;2.93;;;11.10;75.30;;;12.70;54.47;98289.34;5022999;28;20049;-71
2023/09/25 06:57:28;;;;;;;6.93;3.83;;;11.20;74.70;;;12.76;54.21;98294.06;5006732;28;20046;-71
2023/09/25 06:59:56;;;;;;;9.67;3.37;;;11.30;74.50;;;12.82;54.15;98287.25;5024586;28;20050;-71
2023/09/25 07:02:25;;;;;;;6.00;2.87;;;11.30;75.20;;;12.88;54.26;98292.75;5025096;28;20040;-71
2023/09/25 07:04:53;;;;;;;4.37;3.23;;;11.40;74.00;;;12.95;54.13;98299.16;5023896;28;20409;-71
2023/09/25 07:07:20;;;;;;;4.40;2.90;;;11.50;74.00;;;13.01;54.00;98292.34;5021326;28;20038;-71
2023/09/25 07:09:48;;;;;;;7.23;2.63;;;11.60;73.30;;;13.08;53.77;98292.50;5021634;28;20041;-71
2023/09/25 07:12:18;;;;;;;5.23;2.50;;;11.60;73.00;;;13.13;53.66;98288.34;5021466;28;20513;-71
2023/09/25 07:14:51;;;;;;;4.20;2.80;;;11.70;72.70;;;13.20;53.68;98291.22;5007141;28;20046;-71
2023/09/25 07:17:19;;;;;;;4.50;2.55;;;11.70;72.20;;;13.28;53.64;98287.72;4996956;28;20512;-71
2023/09/25 07:19:51;;;;;;;4.10;2.27;;;11.80;72.00;;;13.34;53.59;98298.66;5000574;28;20045;-71
2023/09/25 07:22:22;;;;;;;5.03;3.00;;;11.90;71.80;;;13.39;53.51;98290.97;5024438;28;20052;-71
2023/09/25 07:24:50;;;;;;;7.97;2.80;;;12.00;71.80;;;13.47;53.53;98294.66;5006958;28;20052;-71
2023/09/25 07:27:18;;;;;;;3.70;2.47;;;12.10;71.50;;;13.53;53.39;98294.00;4982697;28;20034;-71
2023/09/25 07:29:48;;;;;;;3.38;2.45;;;12.20;71.30;;;13.58;53.57;98295.19;4999699;28;20054;-71
2023/09/25 07:32:15;;;;;;;4.78;2.92;;;12.20;71.50;;;13.63;53.72;98300.06;4998869;28;20045;-71
2023/09/25 07:34:43;;;;;;;4.03;2.80;;;12.30;72.20;;;13.69;54.04;98299.41;5002660;28;20033;-71
2023/09/25 07:37:12;;;;;;;5.55;3.40;;;12.30;73.50;;;13.74;54.13;98297.03;4988977;28;20525;-72
2023/09/25 07:39:40;;;;;;;5.72;3.10;;;12.40;73.60;;;13.79;54.27;98300.06;5007480;28;20056;-71
2023/09/25 07:42:09;;;;;;;6.18;3.70;;;12.40;74.40;;;13.85;54.38;98305.78;5011679;28;20049;-71
2023/09/25 07:44:38;;;;;;;7.60;3.67;;;12.40;74.80;;;13.89;54.75;98307.13;5010393;28;20570;-71
2023/09/25 07:47:06;;;;;;;5.38;3.42;;;12.50;74.70;;;13.92;54.45;98304.94;5011251;28;20050;-71
2023/09/25 07:49:44;;;;;;;7.60;3.40;;;12.50;74.60;;;13.97;54.34;98309.78;5012173;28;20041;-72
2023/09/25 07:52:19;;;;;;;4.55;3.28;;;12.60;74.30;;;14.02;54.35;98307.47;4996096;28;20067;-71
2023/09/25 07:54:49;;;;;;;5.85;3.63;;;12.60;74.00;;;14.05;54.26;98312.47;5011811;28;20053;-71
2023/09/25 07:57:19;;;;;;;6.20;3.20;;;12.70;73.80;;;14.08;54.37;98309.47;4978489;28;20042;-72
2023/09/25 07:59:48;;;;;;;4.65;3.38;;;12.70;73.90;;;14.13;54.21;98309.81;4993575;28;20057;-71
2023/09/25 08:02:19;;;;;;;4.22;3.40;;;12.80;73.60;;;14.18;54.19;98311.97;5011689;28;20038;-71
2023/09/25 08:04:49;;;;;;;6.20;3.30;;;12.80;73.40;;;14.22;54.15;98317.84;4995532;28;20140;-71
2023/09/25 08:07:18;;;;;;;6.32;3.17;;;12.80;73.00;;;14.27;54.14;98320.81;5010555;28;20444;-71
2023/09/25 08:09:46;;;;;;;4.88;3.55;;;12.90;72.70;;;14.30;54.07;98326.69;5012772;28;20478;-71
2023/09/25 08:12:14;;;;;;;3.85;3.28;;;12.90;72.60;;;14.34;54.11;98321.84;4994392;28;20057;-71
2023/09/25 08:14:42;;;;;;;3.90;3.25;;;13.00;72.40;;;14.36;53.89;98331.41;5011817;28;20042;-71
2023/09/25 08:17:09;;;;;;;4.80;3.67;;;13.10;72.30;;;14.41;54.03;98330.88;4992698;28;20047;-72
2023/09/25 08:19:37;;;;;;;6.30;3.33;;;13.10;72.40;;;14.47;53.99;98334.72;5012482;28;20050;-71
2023/09/25 08:22:04;;;;;;;4.47;3.25;;;13.20;72.10;;;14.51;53.80;98326.16;5010972;28;20046;-71
2023/09/25 08:24:32;;;;;;;5.28;3.30;;;13.30;71.90;;;14.57;53.81;98338.91;5011748;28;20473;-71
2023/09/25 08:27:00;;;;;;;4.95;3.20;;;13.30;71.60;;;14.62;53.89;98327.69;5009962;28;20050;-71
2023/09/25 08:29:28;;;;;;;6.40;3.33;;;13.30;71.40;;;14.68;53.66;98327.00;5011468;28;20038;-71
2023/09/25 08:31:56;;;;;;;4.57;3.58;;;13.40;71.10;;;14.74;53.57;98334.38;5011638;28;20485;-71
2023/09/25 08:34:24;;;;;;;5.22;3.30;;;13.50;70.90;;;14.80;53.64;98334.69;5015001;28;20033;-71
2023/09/25 08:36:52;;;;;;;5.40;3.80;;;13.60;70.80;;;14.85;53.40;98340.38;5016467;28;20381;-71
2023/09/25 08:39:20;;;;;;;6.05;3.55;;;13.60;70.50;;;14.88;53.31;98343.53;5012352;28;20428;-71
2023/09/25 08:41:47;;;;;;;5.35;3.85;;;13.60;70.30;;;14.94;53.42;98342.03;5022412;28;20045;-71
2023/09/25 08:44:18;;;;;;;5.60;3.22;;;13.70;70.30;;;14.99;53.26;98339.69;5003185;28;20049;-71
2023/09/25 08:46:47;;;;;;;6.00;3.70;;;13.70;70.10;;;15.02;53.33;98342.00;5019035;28;20057;-71
2023/09/25 08:49:16;;;;;;;5.68;3.47;;;13.80;70.10;;;15.07;53.39;98347.69;5021601;28;20053;-70
2023/09/25 08:51:44;;;;;;;6.57;3.70;;;13.80;70.10;;;15.11;53.34;98342.81;5022539;28;20041;-72
2023/09/25 08:54:12;;;;;;;8.02;3.45;;;13.80;70.30;;;15.15;53.37;98339.59;5003731;28;20505;-70
2023/09/25 08:56:41;;;;;;;5.90;4.13;;;13.90;70.50;;;15.21;53.53;98340.75;5019429;28;20034;-71
2023/09/25 08:59:11;;;;;;;4.95;3.90;;;14.00;70.60;;;15.26;53.35;98334.88;5003490;28;20057;-71
2023/09/25 09:01:39;;;;;;;6.15;3.65;;;14.00;70.40;;;15.29;53.27;98340.72;5005744;28;20420;-71
2023/09/25 09:04:09;;;;;;;4.78;4.15;;;14.10;70.40;;;15.33;53.21;98334.03;5021727;28;20045;-72
2023/09/25 09:06:37;;;;;;;7.55;3.72;;;14.00;69.90;;;15.37;53.55;98342.53;5019067;28;20045;-61
2023/09/25 09:09:07;;;;;;;6.72;3.97;;;14.10;70.40;;;15.42;53.37;98340.16;5010052;28;20434;-61
2023/09/25 09:11:36;;;;;;;8.73;3.90;;;14.20;70.50;;;15.48;52.95;98344.00;5019511;28;20061;-61
2023/09/25 09:14:06;;;;;;;3.88;3.33;;;14.20;70.00;;;15.52;53.07;98343.47;5002752;28;20057;-61
2023/09/25 09:16:34;;;;;;;6.88;4.07;;;14.30;69.60;;;15.55;53.10;98348.50;5026416;28;20042;-61
2023/09/25 09:19:09;;;;;;;6.85;4.57;;;14.30;69.70;;;15.59;52.96;98343.59;5019106;28;20061;-61
2023/09/25 09:21:38;;;;;;;10.02;4.07;;;14.40;69.40;;;15.62;52.98;98347.78;4995550;28;20050;-61
2023/09/25 09:24:17;;;;;;;6.93;3.97;;;14.40;69.80;;;15.67;53.26;98340.03;5019657;28;20049;-61
2023/09/25 09:26:44;;;;;;;8.02;3.67;;;14.40;69.70;;;15.72;52.99;98343.88;4990311;28;20067;-61
2023/09/25 09:29:13;;;;;;;9.15;3.88;;;14.60;69.40;;;15.78;52.35;98339.69;5011206;28;20056;-61
2023/09/25 09:31:41;;;;;;;7.57;4.50;;;14.60;68.10;;;15.82;51.97;98342.81;5015334;28;20148;-61
2023/09/25 09:34:09;;;;;;;5.13;4.32;;;14.60;67.40;;;15.84;52.08;98328.22;5020021;28;20053;-61
2023/09/25 09:36:37;;;;;;;5.35;3.58;;;14.60;67.30;;;15.89;52.44;98327.69;5022354;28;20045;-62
2023/09/25 09:39:10;;;;;;;5.65;3.38;;;14.70;68.20;;;15.96;52.56;98325.13;5022015;28;20056;-61
2023/09/25 09:41:40;;;;;;;7.82;3.47;;;14.80;68.20;;;16.02;51.95;98324.41;5002577;28;20034;-61
2023/09/25 09:44:08;;;;;;;4.30;2.78;;;14.80;67.00;;;16.04;51.62;98325.06;5001956;28;20481;-61
2023/09/25 09:46:37;;;;;;;6.95;3.20;;;14.80;66.90;;;16.09;51.67;98319.97;5023089;28;20057;-61
2023/09/25 09:49:06;;;;;;;8.02;3.47;;;14.90;66.70;;;16.14;51.42;98318.41;4989513;28;20049;-61
2023/09/25 09:51:34;;;;;;;7.78;2.83;;;15.00;66.10;;;16.21;51.26;98321.22;5012403;28;20038;-61
2023/09/25 09:54:05;;;;;;;7.15;3.13;;;15.00;66.00;;;16.29;51.66;98323.00;5002555;28;20045;-61
2023/09/25 09:56:35;;;;;;;4.15;3.20;;;15.10;66.40;;;16.36;51.73;98323.13;5010622;28;20086;-61
2023/09/25 09:59:03;;;;;;;9.38;3.60;;;15.20;67.30;;;16.41;51.03;98328.78;5002357;28;20057;-61
2023/09/25 10:01:33;;;;;;;3.70;2.45;;;15.30;64.90;;;16.44;50.49;98321.19;5019723;28;20045;-61
2023/09/25 10:04:05;;;;;;;3.95;2.83;;;15.30;64.80;;;16.50;50.60;98320.47;5006201;28;20493;-61
2023/09/25 10:06:47;;;;;;;5.80;2.80;;;15.30;64.50;;;16.58;50.47;98318.72;5021212;28;20045;-61
2023/09/25 10:09:15;;;;;;;5.15;2.80;;;15.40;64.20;;;16.65;50.44;98320.50;5007269;28;20050;-61
2023/09/25 10:11:45;;;;;;;7.88;2.83;;;15.50;65.20;;;16.72;49.86;98315.22;5026080;28;20041;-61
2023/09/25 10:14:13;;;;;;;8.02;3.33;;;15.60;64.20;;;16.76;50.13;98310.31;5007792;28;20072;-62
2023/09/25 10:16:59;;;;;;;7.38;2.88;;;15.60;63.50;;;16.82;49.77;98321.16;5022138;28;20037;-62
2023/09/25 10:19:36;;;;;;;5.43;3.40;;;15.70;61.40;;;16.88;49.69;98314.22;5024709;28;20056;-61
2023/09/25 10:22:26;;;;;;;5.47;2.78;;;15.80;61.90;;;16.94;49.85;98313.47;5025794;28;20042;-61
2023/09/25 10:25:14;;;;;;;3.72;2.63;;;15.80;62.70;;;16.99;49.83;98313.75;5006600;28;20046;-60
2023/09/25 10:27:44;;;;;;;5.43;3.38;;;15.80;62.30;;;17.05;49.77;98310.31;4998369;28;20049;-60